createdAt,value
2018-12-16T00:01:27.069Z,8.23
2018-12-16T00:03:55.164Z,9.40
2018-12-16T00:06:23.405Z,9.83
2018-12-16T00:08:51.469Z,10.48
2018-12-16T00:11:19.583Z,9.00
2018-12-16T00:13:47.787Z,11.93
2018-12-16T00:16:15.908Z,10.10
2018-12-16T00:18:44.046Z,9.53
2018-12-16T00:21:12.285Z,9.63
2018-12-16T00:23:40.400Z,9.37
2018-12-16T00:26:08.609Z,10.40
2018-12-16T00:28:36.730Z,9.58
2018-12-16T00:31:04.860Z,9.43
2018-12-16T00:33:33.019Z,10.70
2018-12-16T00:36:01.165Z,11.10
2018-12-16T00:38:29.216Z,10.23
2018-12-16T00:40:57.292Z,9.28
2018-12-16T00:43:25.486Z,10.23
2018-12-16T00:45:53.641Z,9.27
2018-12-16T00:48:21.932Z,9.78
2018-12-16T00:50:50.160Z,10.20
2018-12-16T00:53:18.440Z,9.77
2018-12-16T00:55:46.559Z,9.07
2018-12-16T00:58:14.689Z,9.50
2018-12-16T01:00:42.834Z,9.90
2018-12-16T01:03:10.968Z,8.63
2018-12-16T01:05:39.076Z,9.23
2018-12-16T01:08:07.278Z,10.18
2018-12-16T01:10:35.388Z,9.47
2018-12-16T01:13:03.900Z,9.17
2018-12-16T01:15:32.016Z,8.43
2018-12-16T01:18:00.123Z,9.00
2018-12-16T01:20:28.251Z,9.87
2018-12-16T01:22:56.503Z,9.70
2018-12-16T01:25:24.652Z,9.43
2018-12-16T01:27:52.788Z,9.33
2018-12-16T01:30:20.924Z,8.95
2018-12-16T01:32:49.007Z,8.87
2018-12-16T01:35:17.122Z,9.73
2018-12-16T01:37:45.250Z,10.23
2018-12-16T01:40:13.436Z,9.47
2018-12-16T01:42:41.624Z,8.50
2018-12-16T01:45:09.808Z,8.57
2018-12-16T01:47:37.949Z,10.03
2018-12-16T01:50:06.116Z,9.80
2018-12-16T01:52:34.179Z,9.60
2018-12-16T01:55:02.386Z,10.43
2018-12-16T01:57:30.492Z,8.90
2018-12-16T01:59:58.573Z,9.13
2018-12-16T02:02:26.760Z,8.17
2018-12-16T02:04:54.978Z,8.75
2018-12-16T02:07:23.196Z,9.30
2018-12-16T02:09:51.369Z,8.77
2018-12-16T02:12:19.501Z,9.87
2018-12-16T02:14:47.540Z,7.90
2018-12-16T02:17:15.751Z,8.90
2018-12-16T02:19:43.868Z,9.43
2018-12-16T02:22:12.052Z,8.97
2018-12-16T02:24:40.243Z,8.20
2018-12-16T02:27:08.363Z,9.40
2018-12-16T02:29:36.426Z,8.17
2018-12-16T02:32:04.640Z,8.57
2018-12-16T02:34:32.684Z,8.43
2018-12-16T02:37:00.758Z,9.03
2018-12-16T02:39:28.900Z,8.67
2018-12-16T02:41:57.157Z,9.97
2018-12-16T02:44:25.235Z,8.80
2018-12-16T02:46:53.460Z,9.83
2018-12-16T02:49:21.599Z,8.80
2018-12-16T02:51:49.723Z,7.73
2018-12-16T02:54:17.808Z,8.00
2018-12-16T02:56:45.995Z,8.87
2018-12-16T02:59:14.107Z,7.80
2018-12-16T03:01:46.560Z,7.70
2018-12-16T03:04:14.665Z,9.40
2018-12-16T03:06:42.857Z,8.10
2018-12-16T03:09:11.101Z,7.20
2018-12-16T03:11:39.222Z,8.27
2018-12-16T03:14:07.424Z,8.13
2018-12-16T03:16:35.565Z,8.20
2018-12-16T03:19:03.711Z,8.10
2018-12-16T03:21:31.865Z,8.73
2018-12-16T03:24:00.057Z,8.87
2018-12-16T03:26:35.825Z,8.13
2018-12-16T03:29:02.669Z,7.10
2018-12-16T03:31:30.912Z,8.03
2018-12-16T03:33:59.072Z,8.10
2018-12-16T03:36:27.140Z,7.50
2018-12-16T03:38:55.305Z,7.83
2018-12-16T03:41:23.528Z,5.87
2018-12-16T03:43:51.763Z,8.10
2018-12-16T03:46:19.905Z,7.60
2018-12-16T03:48:48.007Z,7.80
2018-12-16T03:51:16.159Z,7.80
2018-12-16T03:53:44.371Z,7.20
2018-12-16T03:56:12.451Z,8.03
2018-12-16T03:58:50.688Z,7.90
2018-12-16T04:01:18.855Z,9.33
2018-12-16T04:03:46.941Z,8.00
2018-12-16T04:06:15.157Z,7.83
2018-12-16T04:08:43.249Z,8.53
2018-12-16T04:11:11.435Z,8.60
2018-12-16T04:13:39.631Z,8.80
2018-12-16T04:16:07.796Z,7.95
2018-12-16T04:18:35.865Z,8.00
2018-12-16T04:21:04.190Z,8.35
2018-12-16T04:23:32.254Z,8.97
2018-12-16T04:26:00.466Z,8.30
2018-12-16T04:28:28.761Z,7.93
2018-12-16T04:30:56.887Z,8.50
2018-12-16T04:33:24.953Z,9.63
2018-12-16T04:35:53.087Z,7.70
2018-12-16T04:38:21.148Z,9.07
2018-12-16T04:40:49.273Z,9.43
2018-12-16T04:43:17.388Z,8.20
2018-12-16T04:45:45.468Z,8.80
2018-12-16T04:48:13.727Z,8.50
2018-12-16T04:50:41.849Z,8.13
2018-12-16T04:53:09.942Z,8.27
2018-12-16T04:55:38.010Z,7.03
2018-12-16T04:58:06.137Z,8.83
2018-12-16T05:00:34.400Z,7.67
2018-12-16T05:03:02.519Z,7.58
2018-12-16T05:05:30.816Z,7.90
2018-12-16T05:07:59.060Z,8.40
2018-12-16T05:10:28.744Z,8.47
2018-12-16T05:12:56.956Z,7.70
2018-12-16T05:15:25.163Z,8.70
2018-12-16T05:17:53.506Z,8.67
2018-12-16T05:20:21.727Z,8.67
2018-12-16T05:22:49.818Z,8.10
2018-12-16T05:25:17.976Z,8.40
2018-12-16T05:27:46.117Z,9.00
2018-12-16T05:30:14.252Z,8.77
2018-12-16T05:32:42.352Z,7.87
2018-12-16T05:35:10.518Z,8.93
2018-12-16T05:37:38.656Z,8.47
2018-12-16T05:40:07.014Z,8.80
2018-12-16T05:42:35.169Z,8.77
2018-12-16T05:45:03.355Z,7.63
2018-12-16T05:47:31.520Z,9.00
2018-12-16T05:49:59.805Z,8.20
2018-12-16T05:52:27.957Z,9.13
2018-12-16T05:54:56.053Z,9.70
2018-12-16T05:57:24.196Z,8.13
2018-12-16T05:59:52.349Z,9.40
2018-12-16T06:02:20.471Z,9.20
2018-12-16T06:04:48.552Z,8.97
2018-12-16T06:07:16.736Z,9.87
2018-12-16T06:09:44.889Z,9.70
2018-12-16T06:12:13.017Z,9.80
2018-12-16T06:14:41.114Z,9.57
2018-12-16T06:17:09.240Z,8.90
2018-12-16T06:19:37.349Z,8.40
2018-12-16T06:22:05.476Z,9.37
2018-12-16T06:24:33.649Z,9.73
2018-12-16T06:27:01.793Z,9.30
2018-12-16T06:29:29.945Z,8.90
2018-12-16T06:31:58.168Z,9.50
2018-12-16T06:34:26.321Z,9.60
2018-12-16T06:36:54.647Z,9.00
2018-12-16T06:39:23.122Z,9.00
2018-12-16T06:41:51.245Z,8.47
2018-12-16T06:44:19.401Z,9.30
2018-12-16T06:46:47.465Z,8.73
2018-12-16T06:49:15.599Z,9.17
2018-12-16T06:51:43.761Z,8.87
2018-12-16T06:54:11.925Z,9.33
2018-12-16T06:56:40.005Z,8.70
2018-12-16T06:59:08.224Z,8.90
2018-12-16T07:01:36.294Z,8.90
2018-12-16T07:04:04.479Z,8.60
2018-12-16T07:06:32.726Z,9.37
2018-12-16T07:09:00.811Z,9.63
2018-12-16T07:11:28.881Z,9.83
2018-12-16T07:13:57.090Z,8.73
2018-12-16T07:16:25.309Z,9.17
2018-12-16T07:18:53.520Z,9.33
2018-12-16T07:21:21.623Z,9.10
2018-12-16T07:23:49.715Z,10.20
2018-12-16T07:26:17.859Z,9.53
2018-12-16T07:28:46.190Z,9.50
2018-12-16T07:31:14.353Z,10.28
2018-12-16T07:33:42.539Z,8.93
2018-12-16T07:36:10.744Z,10.30
2018-12-16T07:38:39.145Z,9.60
2018-12-16T07:41:07.335Z,10.10
2018-12-16T07:43:35.419Z,9.00
2018-12-16T07:46:03.658Z,9.90
2018-12-16T07:48:32.000Z,10.23
2018-12-16T07:51:00.667Z,9.80
2018-12-16T07:53:28.864Z,9.80
2018-12-16T07:55:57.014Z,9.93
2018-12-16T07:58:25.165Z,10.10
2018-12-16T08:00:53.388Z,10.07
2018-12-16T08:03:21.570Z,9.90
2018-12-16T08:05:49.731Z,10.20
2018-12-16T08:08:17.867Z,10.43
2018-12-16T08:10:45.993Z,10.63
2018-12-16T08:13:14.075Z,11.03
2018-12-16T08:15:42.243Z,11.70
2018-12-16T08:18:10.389Z,10.93
2018-12-16T08:20:38.530Z,10.20
2018-12-16T08:23:06.734Z,11.67
2018-12-16T08:25:34.876Z,11.10
2018-12-16T08:28:02.976Z,11.93
2018-12-16T08:30:31.150Z,10.87
2018-12-16T08:32:59.308Z,11.80
2018-12-16T08:35:27.421Z,11.20
2018-12-16T08:37:55.511Z,10.87
2018-12-16T08:40:23.650Z,11.37
2018-12-16T08:42:51.815Z,10.37
2018-12-16T08:45:19.917Z,10.20
2018-12-16T08:47:48.093Z,11.83
2018-12-16T08:50:16.652Z,12.07
2018-12-16T08:52:44.860Z,12.00
2018-12-16T08:55:13.032Z,12.53
2018-12-16T08:57:41.107Z,14.53
2018-12-16T09:00:09.348Z,11.67
2018-12-16T09:02:37.574Z,13.30
2018-12-16T09:05:05.896Z,11.20
2018-12-16T09:07:37.177Z,11.73
2018-12-16T09:10:05.045Z,11.70
2018-12-16T09:12:33.248Z,12.13
2018-12-16T09:15:01.457Z,11.00
2018-12-16T09:17:29.790Z,11.57
2018-12-16T09:19:58.070Z,13.57
2018-12-16T09:22:26.255Z,13.30
2018-12-16T09:24:54.470Z,14.23
2018-12-16T09:27:22.646Z,14.57
2018-12-16T09:29:50.906Z,12.60
2018-12-16T09:32:19.140Z,12.60
2018-12-16T09:34:47.315Z,12.30
2018-12-16T09:37:15.435Z,14.03
2018-12-16T09:39:43.528Z,12.43
2018-12-16T09:42:11.784Z,12.53
2018-12-16T09:44:40.221Z,13.53
2018-12-16T09:47:08.368Z,12.73
2018-12-16T09:49:36.468Z,12.30
2018-12-16T09:52:04.700Z,12.97
2018-12-16T09:54:32.776Z,12.80
2018-12-16T09:57:00.963Z,12.47
2018-12-16T09:59:29.137Z,12.50
2018-12-16T10:01:57.350Z,10.87
2018-12-16T10:04:25.582Z,11.63
2018-12-16T10:06:53.825Z,12.43
2018-12-16T10:09:21.900Z,12.47
2018-12-16T10:11:50.049Z,12.40
2018-12-16T10:14:18.399Z,13.30
2018-12-16T10:16:46.536Z,12.83
2018-12-16T10:19:14.757Z,12.40
2018-12-16T10:21:43.036Z,11.23
2018-12-16T10:24:11.259Z,11.17
2018-12-16T10:26:39.643Z,10.97
2018-12-16T10:29:07.792Z,12.20
2018-12-16T10:31:35.892Z,12.20
2018-12-16T10:34:04.091Z,12.43
2018-12-16T10:36:33.069Z,11.37
2018-12-16T10:39:01.980Z,16.50
2018-12-16T10:41:30.425Z,13.50
2018-12-16T10:43:58.616Z,12.17
2018-12-16T10:46:26.801Z,11.70
2018-12-16T10:48:55.038Z,11.90
2018-12-16T10:51:23.301Z,11.73
2018-12-16T10:53:51.396Z,11.97
2018-12-16T10:56:19.597Z,11.53
2018-12-16T10:58:47.758Z,11.13
2018-12-16T11:01:21.476Z,11.77
2018-12-16T11:03:49.636Z,11.40
2018-12-16T11:06:18.012Z,12.27
2018-12-16T11:08:46.604Z,13.43
2018-12-16T11:11:14.768Z,11.23
2018-12-16T11:13:42.917Z,12.77
2018-12-16T11:16:11.125Z,11.87
2018-12-16T11:18:39.296Z,12.47
2018-12-16T11:21:07.404Z,12.17
2018-12-16T11:23:35.636Z,12.17
2018-12-16T11:26:04.133Z,13.17
2018-12-16T11:28:32.292Z,12.77
2018-12-16T11:31:00.525Z,10.93
2018-12-16T11:33:28.697Z,13.00
2018-12-16T11:35:56.835Z,12.57
2018-12-16T11:38:25.102Z,11.93
2018-12-16T11:40:53.353Z,13.90
2018-12-16T11:43:21.509Z,11.90
2018-12-16T11:45:49.687Z,11.53
2018-12-16T11:48:17.864Z,11.20
2018-12-16T11:50:46.135Z,11.67
2018-12-16T11:53:14.492Z,13.37
2018-12-16T11:55:42.716Z,12.17
2018-12-16T11:58:10.908Z,12.70
2018-12-16T12:00:39.076Z,12.40
2018-12-16T12:03:07.187Z,12.63
2018-12-16T12:05:35.328Z,12.40
2018-12-16T12:08:03.590Z,12.77
2018-12-16T12:10:31.780Z,12.77
2018-12-16T12:13:00.011Z,12.67
2018-12-16T12:15:28.192Z,11.93
2018-12-16T12:17:56.419Z,13.00
2018-12-16T12:20:24.593Z,12.40
2018-12-16T12:22:52.875Z,12.00
2018-12-16T12:25:21.056Z,12.73
2018-12-16T12:27:49.347Z,14.33
2018-12-16T12:30:17.594Z,14.17
2018-12-16T12:32:49.029Z,12.70
2018-12-16T12:35:15.877Z,12.93
2018-12-16T12:37:44.027Z,12.50
2018-12-16T12:40:12.255Z,13.20
2018-12-16T12:42:40.560Z,11.33
2018-12-16T12:45:08.788Z,11.87
2018-12-16T12:47:36.995Z,12.60
2018-12-16T12:50:06.056Z,13.40
2018-12-16T12:52:34.212Z,11.77
2018-12-16T12:55:02.496Z,12.07
2018-12-16T12:57:30.724Z,12.30
2018-12-16T12:59:58.849Z,12.90
2018-12-16T13:02:27.016Z,13.67
2018-12-16T13:04:55.221Z,12.47
2018-12-16T13:07:23.497Z,12.40
2018-12-16T13:09:51.591Z,12.47
2018-12-16T13:12:19.824Z,11.87
2018-12-16T13:14:47.979Z,12.53
2018-12-16T13:17:16.119Z,12.60
2018-12-16T13:19:44.284Z,11.80
2018-12-16T13:22:12.602Z,11.37
2018-12-16T13:24:51.994Z,13.73
2018-12-16T13:27:20.086Z,12.03
2018-12-16T13:29:48.261Z,12.90
2018-12-16T13:32:16.376Z,12.47
2018-12-16T13:34:44.460Z,12.63
2018-12-16T13:37:12.740Z,11.50
2018-12-16T13:39:40.906Z,12.97
2018-12-16T13:42:09.032Z,12.47
2018-12-16T13:44:37.312Z,18.77
2018-12-16T13:47:05.487Z,15.23
2018-12-16T13:49:33.668Z,12.07
2018-12-16T13:52:01.826Z,13.03
2018-12-16T13:54:29.992Z,12.80
2018-12-16T13:56:58.192Z,11.80
2018-12-16T13:59:26.817Z,11.57
2018-12-16T14:01:55.041Z,11.53
2018-12-16T14:04:23.177Z,11.60
2018-12-16T14:06:51.390Z,11.77
2018-12-16T14:09:19.625Z,12.40
2018-12-16T14:11:47.782Z,12.20
2018-12-16T14:14:16.088Z,11.47
2018-12-16T14:16:44.220Z,11.17
2018-12-16T14:19:12.419Z,12.50
2018-12-16T14:21:40.597Z,12.80
2018-12-16T14:24:08.747Z,12.77
2018-12-16T14:26:36.998Z,12.47
2018-12-16T14:29:05.256Z,12.40
2018-12-16T14:31:33.356Z,12.53
2018-12-16T14:34:01.486Z,11.80
2018-12-16T14:36:29.638Z,12.90
2018-12-16T14:38:57.845Z,12.83
2018-12-16T14:41:26.056Z,12.20
2018-12-16T14:43:54.989Z,10.50
2018-12-16T14:46:23.165Z,12.20
2018-12-16T14:48:51.334Z,12.70
2018-12-16T14:51:19.514Z,11.83
2018-12-16T14:53:48.499Z,12.03
2018-12-16T14:56:16.776Z,12.37
2018-12-16T14:58:45.015Z,11.67
2018-12-16T15:01:13.264Z,11.70
2018-12-16T15:03:41.494Z,12.20
2018-12-16T15:06:09.657Z,13.00
2018-12-16T15:08:37.833Z,11.73
2018-12-16T15:11:06.241Z,13.73
2018-12-16T15:13:34.480Z,11.63
2018-12-16T15:16:02.612Z,12.00
2018-12-16T15:18:30.824Z,11.40
2018-12-16T15:20:59.039Z,11.17
2018-12-16T15:23:27.233Z,12.60
2018-12-16T15:26:01.875Z,11.63
2018-12-16T15:28:25.478Z,12.40
2018-12-16T15:30:53.527Z,11.53
2018-12-16T15:33:21.630Z,11.97
2018-12-16T15:35:49.828Z,13.53
2018-12-16T15:38:17.967Z,13.03
2018-12-16T15:40:46.163Z,12.43
2018-12-16T15:43:14.307Z,10.83
2018-12-16T15:45:42.371Z,12.97
2018-12-16T15:48:10.459Z,12.67
2018-12-16T15:50:38.611Z,11.90
2018-12-16T15:53:06.760Z,12.07
2018-12-16T15:55:34.964Z,13.10
2018-12-16T15:58:03.088Z,12.27
2018-12-16T16:00:31.254Z,11.80
2018-12-16T16:02:59.457Z,12.37
2018-12-16T16:05:27.652Z,12.90
2018-12-16T16:07:55.765Z,14.03
2018-12-16T16:10:23.976Z,15.50
2018-12-16T16:12:52.268Z,13.90
2018-12-16T16:15:20.413Z,13.73
2018-12-16T16:17:48.569Z,14.03
2018-12-16T16:20:16.848Z,13.10
2018-12-16T16:22:44.982Z,13.97
2018-12-16T16:25:13.196Z,12.20
2018-12-16T16:27:41.292Z,13.40
2018-12-16T16:30:09.512Z,13.07
2018-12-16T16:32:37.748Z,12.83
2018-12-16T16:35:06.078Z,12.50
2018-12-16T16:37:34.307Z,11.80
2018-12-16T16:40:02.637Z,13.30
2018-12-16T16:42:30.846Z,11.67
2018-12-16T16:44:58.920Z,11.40
2018-12-16T16:47:27.015Z,12.07
2018-12-16T16:49:55.192Z,12.27
2018-12-16T16:52:23.265Z,12.77
2018-12-16T16:54:51.517Z,12.23
2018-12-16T16:57:19.958Z,12.97
2018-12-16T16:59:48.950Z,12.20
2018-12-16T17:02:17.968Z,12.40
2018-12-16T17:04:46.158Z,10.93
2018-12-16T17:07:16.193Z,10.70
2018-12-16T17:09:44.388Z,16.30
2018-12-16T17:12:12.604Z,13.97
2018-12-16T17:14:40.823Z,14.00
2018-12-16T17:17:09.128Z,11.60
2018-12-16T17:19:37.420Z,12.50
2018-12-16T17:22:05.794Z,11.87
2018-12-16T17:24:34.117Z,12.50
2018-12-16T17:27:02.304Z,12.83
2018-12-16T17:29:30.540Z,11.13
2018-12-16T17:31:58.795Z,12.57
2018-12-16T17:34:26.944Z,15.33
2018-12-16T17:36:55.148Z,14.10
2018-12-16T17:39:23.382Z,14.70
2018-12-16T17:41:51.600Z,15.00
2018-12-16T17:44:19.832Z,21.53
2018-12-16T17:46:48.888Z,14.50
2018-12-16T17:49:16.968Z,15.47
2018-12-16T17:51:45.235Z,14.97
2018-12-16T17:54:13.445Z,15.17
2018-12-16T17:56:41.696Z,12.73
2018-12-16T17:59:09.943Z,13.40
2018-12-16T18:01:38.348Z,14.07
2018-12-16T18:04:09.852Z,13.97
2018-12-16T18:06:38.391Z,13.63
2018-12-16T18:09:07.524Z,15.40
2018-12-16T18:11:35.759Z,14.50
2018-12-16T18:14:03.995Z,13.90
2018-12-16T18:16:32.116Z,14.20
2018-12-16T18:19:00.265Z,13.50
2018-12-16T18:21:29.163Z,13.53
2018-12-16T18:23:57.436Z,13.13
2018-12-16T18:26:25.644Z,13.97
2018-12-16T18:28:54.262Z,13.60
2018-12-16T18:31:22.476Z,13.57
2018-12-16T18:33:50.673Z,14.67
2018-12-16T18:36:18.844Z,14.30
2018-12-16T18:38:46.991Z,14.40
2018-12-16T18:41:15.075Z,15.47
2018-12-16T18:43:43.377Z,14.50
2018-12-16T18:46:11.580Z,15.77
2018-12-16T18:48:39.683Z,16.53
2018-12-16T18:51:08.194Z,15.97
2018-12-16T18:53:36.264Z,15.83
2018-12-16T18:56:04.510Z,16.30
2018-12-16T18:58:32.671Z,16.30
2018-12-16T19:01:00.759Z,15.43
2018-12-16T19:03:28.840Z,15.00
2018-12-16T19:05:57.071Z,16.80
2018-12-16T19:08:25.233Z,16.00
2018-12-16T19:10:53.369Z,17.47
2018-12-16T19:13:21.926Z,15.67
2018-12-16T19:15:50.211Z,16.27
2018-12-16T19:18:18.571Z,17.67
2018-12-16T19:20:46.641Z,15.97
2018-12-16T19:23:14.828Z,16.27
2018-12-16T19:25:42.963Z,16.50
2018-12-16T19:28:11.144Z,15.77
2018-12-16T19:30:39.232Z,26.00
2018-12-16T19:33:07.501Z,19.70
2018-12-16T19:35:35.652Z,17.33
2018-12-16T19:38:04.299Z,17.40
2018-12-16T19:40:32.431Z,17.90
2018-12-16T19:43:00.583Z,16.90
2018-12-16T19:45:28.736Z,17.97
2018-12-16T19:47:56.889Z,18.70
2018-12-16T19:50:24.951Z,18.20
2018-12-16T19:52:53.020Z,18.03
2018-12-16T19:55:21.349Z,17.60
2018-12-16T19:57:49.643Z,18.97
2018-12-16T20:00:17.911Z,18.03
2018-12-16T20:02:46.223Z,17.63
2018-12-16T20:05:20.541Z,18.60
2018-12-16T20:07:49.356Z,17.70
2018-12-16T20:10:18.013Z,19.07
2018-12-16T20:12:46.148Z,19.23
2018-12-16T20:15:14.332Z,17.97
2018-12-16T20:17:42.515Z,19.57
2018-12-16T20:20:10.997Z,19.90
2018-12-16T20:22:39.775Z,19.63
2018-12-16T20:25:08.019Z,18.50
2018-12-16T20:27:36.241Z,18.90
2018-12-16T20:30:05.135Z,29.50
2018-12-16T20:32:33.267Z,22.30
2018-12-16T20:35:01.657Z,18.53
2018-12-16T20:37:29.931Z,21.07
2018-12-16T20:39:59.127Z,20.23
2018-12-16T20:42:27.201Z,20.90
2018-12-16T20:44:55.325Z,19.90
2018-12-16T20:47:24.334Z,21.03
2018-12-16T20:49:52.654Z,21.50
2018-12-16T20:52:21.639Z,20.23
2018-12-16T20:54:49.890Z,20.13
2018-12-16T20:57:18.877Z,18.60
2018-12-16T20:59:47.275Z,20.77
2018-12-16T21:02:15.624Z,20.50
2018-12-16T21:04:43.783Z,19.27
2018-12-16T21:07:12.034Z,20.23
2018-12-16T21:09:40.716Z,20.30
2018-12-16T21:12:18.042Z,21.07
2018-12-16T21:16:52.675Z,20.03
2018-12-16T21:19:21.060Z,20.00
2018-12-16T21:21:49.349Z,20.00
2018-12-16T21:26:44.023Z,19.73
2018-12-16T21:29:12.351Z,20.60
2018-12-16T21:31:40.632Z,21.23
2018-12-16T21:34:08.882Z,21.47
2018-12-16T21:36:37.159Z,22.23
2018-12-16T21:39:06.945Z,20.20
2018-12-16T21:41:35.126Z,20.10
2018-12-16T21:44:03.515Z,20.47
2018-12-16T21:46:31.777Z,22.30
2018-12-16T21:48:59.987Z,21.20
2018-12-16T21:51:28.260Z,21.47
2018-12-16T21:53:56.359Z,21.17
2018-12-16T21:56:24.637Z,22.87
2018-12-16T21:58:52.858Z,20.80
